createdAt,value
2018-01-24T00:00:35.821Z,20.37
2018-01-24T00:03:05.650Z,21.17
2018-01-24T00:05:35.509Z,20.03
2018-01-24T00:08:05.403Z,24.57
2018-01-24T00:10:35.254Z,18.10
2018-01-24T00:13:05.154Z,17.80
2018-01-24T00:15:35.082Z,16.57
2018-01-24T00:18:04.937Z,23.70
2018-01-24T00:20:34.790Z,22.37
2018-01-24T00:23:04.715Z,23.27
2018-01-24T00:25:34.562Z,14.97
2018-01-24T00:28:04.390Z,20.47
2018-01-24T00:30:34.233Z,18.27
2018-01-24T00:33:04.090Z,18.23
2018-01-24T00:35:34.094Z,22.47
2018-01-24T00:38:03.922Z,18.50
2018-01-24T00:40:33.738Z,18.90
2018-01-24T00:43:03.590Z,17.80
2018-01-24T00:45:33.397Z,14.50
2018-01-24T00:48:03.266Z,13.97
2018-01-24T00:50:33.075Z,17.00
2018-01-24T00:53:02.927Z,15.50
2018-01-24T00:55:32.793Z,17.60
2018-01-24T00:58:02.654Z,24.63
2018-01-24T01:00:32.506Z,16.47
2018-01-24T01:03:02.319Z,13.90
2018-01-24T01:05:32.173Z,17.27
2018-01-24T01:08:02.038Z,19.10
2018-01-24T01:10:31.954Z,18.73
2018-01-24T01:13:02.278Z,16.93
2018-01-24T01:15:32.130Z,21.63
2018-01-24T01:18:01.946Z,18.73
2018-01-24T01:20:31.797Z,15.03
2018-01-24T01:23:02.242Z,18.50
2018-01-24T01:25:32.090Z,14.20
2018-01-24T01:28:01.914Z,15.30
2018-01-24T01:30:31.773Z,15.20
2018-01-24T01:33:02.300Z,23.30
2018-01-24T01:35:32.110Z,16.60
2018-01-24T01:38:01.959Z,15.73
2018-01-24T01:40:31.897Z,21.10
2018-01-24T01:43:02.310Z,17.20
2018-01-24T01:45:32.115Z,19.87
2018-01-24T01:48:01.978Z,18.73
2018-01-24T01:50:31.794Z,14.70
2018-01-24T01:53:01.717Z,14.30
2018-01-24T01:55:31.562Z,16.03
2018-01-24T01:58:01.386Z,22.60
2018-01-24T02:00:31.244Z,16.53
2018-01-24T02:03:01.086Z,13.90
2018-01-24T02:05:30.934Z,22.73
2018-01-24T02:08:00.785Z,17.13
2018-01-24T02:10:30.613Z,19.83
2018-01-24T02:13:00.469Z,14.40
2018-01-24T02:15:30.281Z,12.20
2018-01-24T02:18:00.194Z,11.03
2018-01-24T02:20:30.010Z,16.70
2018-01-24T02:22:59.941Z,16.57
2018-01-24T02:25:29.766Z,19.63
2018-01-24T02:27:59.613Z,21.00
2018-01-24T02:30:29.429Z,18.10
2018-01-24T02:32:59.354Z,15.20
2018-01-24T02:35:29.205Z,18.00
2018-01-24T02:37:59.083Z,14.00
2018-01-24T02:40:28.930Z,24.57
2018-01-24T02:42:58.750Z,20.10
2018-01-24T02:45:28.569Z,16.40
2018-01-24T02:47:58.422Z,14.43
2018-01-24T02:50:28.241Z,19.37
2018-01-24T02:52:58.102Z,18.83
2018-01-24T02:55:27.918Z,22.70
2018-01-24T02:57:57.826Z,16.50
2018-01-24T03:00:27.642Z,24.83
2018-01-24T03:02:57.501Z,19.03
2018-01-24T03:05:27.349Z,17.50
2018-01-24T03:07:57.177Z,19.27
2018-01-24T03:10:27.137Z,18.57
2018-01-24T03:12:56.966Z,16.87
2018-01-24T03:15:26.821Z,25.27
2018-01-24T03:17:56.654Z,18.43
2018-01-24T03:20:26.510Z,23.43
2018-01-24T03:22:56.378Z,16.60
2018-01-24T03:25:26.193Z,17.83
2018-01-24T03:27:56.226Z,24.13
2018-01-24T03:30:26.086Z,20.60
2018-01-24T03:32:56.048Z,16.57
2018-01-24T03:35:25.890Z,22.13
2018-01-24T03:37:55.714Z,17.67
2018-01-24T03:40:26.553Z,17.00
2018-01-24T03:42:56.402Z,22.17
2018-01-24T03:45:26.905Z,16.90
2018-01-24T03:47:56.726Z,15.23
2018-01-24T03:50:26.583Z,17.90
2018-01-24T03:52:56.439Z,20.93
2018-01-24T03:55:26.438Z,21.63
2018-01-24T03:57:56.358Z,15.50
2018-01-24T04:00:26.186Z,22.10
2018-01-24T04:02:56.777Z,21.93
2018-01-24T04:05:27.965Z,19.60
2018-01-24T04:07:57.822Z,24.77
2018-01-24T04:10:27.637Z,19.13
2018-01-24T04:12:57.511Z,20.83
2018-01-24T04:15:27.402Z,18.67
2018-01-24T04:17:57.261Z,20.13
2018-01-24T04:20:27.086Z,16.70
2018-01-24T04:22:56.937Z,20.13
2018-01-24T04:25:26.795Z,23.30
2018-01-24T04:27:56.645Z,22.20
2018-01-24T04:30:26.466Z,19.83
2018-01-24T04:32:56.382Z,21.83
2018-01-24T04:35:26.230Z,16.50
2018-01-24T04:37:56.046Z,21.70
2018-01-24T04:40:25.907Z,21.20
2018-01-24T04:42:55.761Z,21.93
2018-01-24T04:45:25.619Z,21.33
2018-01-24T04:47:55.534Z,22.90
2018-01-24T04:50:25.398Z,18.07
2018-01-24T04:52:55.222Z,25.13
2018-01-24T04:55:25.079Z,24.47
2018-01-24T04:57:54.930Z,19.60
2018-01-24T05:00:24.750Z,29.50
2018-01-24T05:02:54.605Z,23.83
2018-01-24T05:05:24.421Z,18.27
2018-01-24T05:07:54.282Z,19.83
2018-01-24T05:10:24.143Z,20.63
2018-01-24T05:12:53.967Z,18.33
2018-01-24T05:15:23.818Z,23.50
2018-01-24T05:17:53.638Z,19.50
2018-01-24T05:20:36.306Z,21.30
2018-01-24T05:23:06.198Z,14.47
2018-01-24T05:25:36.050Z,17.00
2018-01-24T05:28:05.865Z,20.67
2018-01-24T05:30:35.753Z,16.83
2018-01-24T05:33:05.610Z,14.00
2018-01-24T05:35:35.425Z,19.80
2018-01-24T05:38:05.462Z,25.43
2018-01-24T05:40:35.285Z,16.00
2018-01-24T05:43:05.246Z,17.23
2018-01-24T05:45:35.074Z,21.93
2018-01-24T05:48:05.166Z,29.57
2018-01-24T05:50:35.014Z,23.53
2018-01-24T05:53:04.830Z,29.23
2018-01-24T05:55:34.946Z,23.50
2018-01-24T05:58:04.770Z,23.60
2018-01-24T06:00:34.596Z,24.33
2018-01-24T06:03:04.469Z,28.13
2018-01-24T06:05:34.298Z,24.50
2018-01-24T06:08:04.150Z,19.57
2018-01-24T06:10:33.979Z,53.53
2018-01-24T06:13:03.843Z,28.53
2018-01-24T06:15:33.709Z,20.83
2018-01-24T06:18:03.578Z,25.80
2018-01-24T06:20:33.446Z,39.00
2018-01-24T06:23:03.270Z,23.47
2018-01-24T06:25:33.138Z,21.37
2018-01-24T06:28:02.997Z,66.57
2018-01-24T06:30:32.846Z,35.20
2018-01-24T06:33:02.737Z,28.00
2018-01-24T06:35:32.555Z,26.27
2018-01-24T06:38:02.593Z,14.63
2018-01-24T06:40:32.453Z,21.70
2018-01-24T06:43:02.942Z,14.27
2018-01-24T06:45:32.774Z,16.70
2018-01-24T06:48:02.713Z,11.17
2018-01-24T06:50:32.530Z,11.90
2018-01-24T06:53:02.470Z,21.13
2018-01-24T06:55:32.289Z,10.33
2018-01-24T06:58:02.141Z,9.37
2018-01-24T07:00:32.049Z,10.03
2018-01-24T07:03:02.897Z,13.13
2018-01-24T07:05:32.706Z,14.90
2018-01-24T07:08:02.565Z,12.20
2018-01-24T07:10:32.383Z,12.90
2018-01-24T07:13:08.189Z,11.23
2018-01-24T07:15:39.246Z,15.03
2018-01-24T07:18:09.062Z,15.00
2018-01-24T07:20:39.147Z,15.93
2018-01-24T07:23:08.959Z,17.83
2018-01-24T07:25:38.874Z,11.33
2018-01-24T07:28:08.773Z,16.30
2018-01-24T07:30:38.586Z,8.73
2018-01-24T07:33:08.470Z,12.30
2018-01-24T07:35:38.324Z,12.27
2018-01-24T07:38:08.141Z,13.67
2018-01-24T07:40:38.233Z,12.10
2018-01-24T07:43:08.045Z,13.70
2018-01-24T07:45:37.910Z,13.40
2018-01-24T07:48:07.779Z,12.27
2018-01-24T07:50:37.603Z,13.13
2018-01-24T07:53:07.466Z,8.70
2018-01-24T07:55:37.273Z,12.23
2018-01-24T07:58:07.154Z,12.50
2018-01-24T08:00:36.993Z,14.93
2018-01-24T08:03:08.218Z,15.23
2018-01-24T08:05:38.051Z,11.20
2018-01-24T08:08:07.975Z,9.87
2018-01-24T08:10:37.786Z,18.57
2018-01-24T08:13:07.597Z,12.90
2018-01-24T08:15:37.461Z,26.10
2018-01-24T08:18:07.274Z,19.00
2018-01-24T08:20:37.118Z,17.60
2018-01-24T08:23:07.034Z,16.70
2018-01-24T08:25:37.172Z,14.83
2018-01-24T08:28:06.994Z,19.17
2018-01-24T08:30:37.119Z,18.33
2018-01-24T08:33:06.933Z,14.50
2018-01-24T08:35:36.757Z,17.93
2018-01-24T08:38:06.648Z,13.20
2018-01-24T08:40:36.623Z,14.17
2018-01-24T08:43:06.648Z,9.50
2018-01-24T08:45:36.501Z,16.33
2018-01-24T08:48:06.414Z,15.90
2018-01-24T08:50:36.361Z,11.17
2018-01-24T08:53:06.178Z,10.90
2018-01-24T08:55:36.025Z,11.13
2018-01-24T08:58:05.842Z,17.77
2018-01-24T09:00:47.453Z,10.47
2018-01-24T09:03:34.878Z,15.63
2018-01-24T09:06:22.671Z,16.10
2018-01-24T09:09:10.110Z,6.20
2018-01-24T09:11:57.789Z,8.20
2018-01-24T09:14:45.497Z,14.50
2018-01-24T09:17:33.190Z,14.03
2018-01-24T09:20:20.934Z,7.07
2018-01-24T09:23:10.789Z,8.77
2018-01-24T09:25:42.531Z,7.27
2018-01-24T09:28:12.388Z,5.67
2018-01-24T09:30:42.201Z,6.97
2018-01-24T09:33:12.066Z,7.07
2018-01-24T09:35:41.879Z,9.73
2018-01-24T09:38:11.689Z,6.73
2018-01-24T09:40:41.562Z,6.57
2018-01-24T09:43:11.377Z,10.50
2018-01-24T09:45:41.241Z,8.50
2018-01-24T09:48:11.054Z,7.00
2018-01-24T09:50:41.038Z,4.70
2018-01-24T09:53:10.857Z,7.57
2018-01-24T09:55:40.718Z,6.73
2018-01-24T09:58:10.527Z,5.13
2018-01-24T10:00:40.443Z,4.53
2018-01-24T10:03:10.258Z,5.33
2018-01-24T10:05:41.424Z,7.63
2018-01-24T10:08:11.229Z,7.10
2018-01-24T10:10:41.103Z,6.53
2018-01-24T10:13:11.001Z,3.57
2018-01-24T10:15:41.030Z,3.07
2018-01-24T10:18:11.042Z,4.20
2018-01-24T10:20:40.854Z,4.40
2018-01-24T10:23:10.670Z,4.07
2018-01-24T10:25:40.514Z,11.37
2018-01-24T10:28:10.330Z,3.63
2018-01-24T10:30:40.204Z,3.30
2018-01-24T10:33:11.406Z,2.50
2018-01-24T10:35:42.506Z,2.57
2018-01-24T10:38:12.318Z,3.10
2018-01-24T10:40:42.382Z,2.77
2018-01-24T10:43:12.189Z,2.50
2018-01-24T10:45:42.047Z,2.80
2018-01-24T10:48:12.033Z,3.87
2018-01-24T10:50:41.844Z,5.13
2018-01-24T10:53:11.653Z,4.40
2018-01-24T10:55:41.509Z,4.23
2018-01-24T10:58:11.317Z,3.33
2018-01-24T11:00:41.362Z,4.50
2018-01-24T11:03:11.173Z,2.57
2018-01-24T11:05:41.223Z,1.87
2018-01-24T11:08:11.046Z,4.17
2018-01-24T11:10:40.894Z,3.70
2018-01-24T11:13:10.707Z,2.50
2018-01-24T11:15:40.518Z,1.83
2018-01-24T11:18:10.450Z,4.53
2018-01-24T11:20:40.258Z,2.87
2018-01-24T11:23:10.201Z,1.77
2018-01-24T11:25:40.010Z,1.53
2018-01-24T11:28:09.962Z,2.73
2018-01-24T11:30:39.769Z,2.07
2018-01-24T11:33:09.586Z,3.23
2018-01-24T11:35:40.757Z,3.07
2018-01-24T11:38:10.589Z,1.13
2018-01-24T11:40:40.514Z,2.90
2018-01-24T11:43:10.338Z,2.03
2018-01-24T11:45:40.266Z,1.73
2018-01-24T11:48:10.082Z,1.60
2018-01-24T11:50:39.949Z,1.33
2018-01-24T11:53:09.974Z,2.80
2018-01-24T11:55:39.781Z,1.00
2018-01-24T11:58:09.697Z,1.90
2018-01-24T12:00:39.526Z,1.20
2018-01-24T12:03:09.654Z,1.63
2018-01-24T12:05:39.486Z,1.77
2018-01-24T12:08:09.347Z,0.90
2018-01-24T12:10:39.229Z,2.10
2018-01-24T12:13:09.166Z,1.23
2018-01-24T12:15:38.981Z,2.70
2018-01-24T12:18:09.221Z,1.43
2018-01-24T12:20:39.039Z,1.80
2018-01-24T12:23:09.085Z,0.97
2018-01-24T12:25:38.894Z,2.50
2018-01-24T12:28:08.715Z,0.93
2018-01-24T12:30:38.579Z,1.47
2018-01-24T12:33:08.396Z,4.10
2018-01-24T12:35:38.250Z,0.90
2018-01-24T12:38:08.058Z,0.90
2018-01-24T12:40:38.062Z,1.93
2018-01-24T12:43:07.874Z,2.93
2018-01-24T12:45:37.705Z,2.17
2018-01-24T12:48:07.738Z,1.37
2018-01-24T12:50:37.554Z,0.93
2018-01-24T12:53:07.398Z,1.10
2018-01-24T12:55:37.391Z,0.90
2018-01-24T12:58:07.265Z,1.80
2018-01-24T13:00:37.073Z,1.20
2018-01-24T13:03:07.094Z,1.10
2018-01-24T13:05:36.906Z,1.47
2018-01-24T13:08:06.755Z,0.90
2018-01-24T13:10:36.567Z,1.50
2018-01-24T13:13:06.475Z,3.70
2018-01-24T13:15:36.286Z,1.20
2018-01-24T13:18:06.222Z,1.17
2018-01-24T13:20:36.182Z,1.50
2018-01-24T13:23:06.041Z,1.00
2018-01-24T13:25:35.907Z,1.00
2018-01-24T13:28:05.718Z,1.17
2018-01-24T13:30:35.682Z,1.33
2018-01-24T13:33:05.504Z,0.70
2018-01-24T13:35:35.365Z,0.80
2018-01-24T13:38:05.241Z,1.63
2018-01-24T13:40:35.093Z,3.13
2018-01-24T13:43:04.906Z,2.50
2018-01-24T13:45:34.749Z,1.67
2018-01-24T13:48:04.567Z,1.67
2018-01-24T13:50:34.434Z,1.47
2018-01-24T13:53:04.522Z,1.60
2018-01-24T13:55:34.336Z,3.40
2018-01-24T13:58:04.281Z,1.53
2018-01-24T14:00:34.087Z,2.03
2018-01-24T14:03:04.104Z,1.53
2018-01-24T14:05:35.186Z,1.10
2018-01-24T14:08:05.023Z,0.90
2018-01-24T14:10:35.043Z,1.30
2018-01-24T14:13:04.851Z,2.10
2018-01-24T14:15:34.662Z,1.97
2018-01-24T14:18:04.525Z,1.93
2018-01-24T14:20:34.337Z,1.03
2018-01-24T14:23:04.241Z,3.03
2018-01-24T14:25:34.089Z,4.47
2018-01-24T14:28:03.923Z,1.93
2018-01-24T14:30:33.851Z,2.53
2018-01-24T14:33:03.710Z,1.87
2018-01-24T14:35:33.554Z,4.63
2018-01-24T14:38:03.461Z,5.17
2018-01-24T14:40:33.271Z,3.00
2018-01-24T14:43:03.389Z,2.93
2018-01-24T14:45:33.198Z,2.27
2018-01-24T14:48:03.240Z,1.57
2018-01-24T14:50:33.054Z,1.53
2018-01-24T14:53:02.931Z,2.07
2018-01-24T14:55:34.038Z,1.50
2018-01-24T14:58:03.852Z,2.63
2018-01-24T15:00:34.280Z,1.50
2018-01-24T15:03:04.105Z,1.33
2018-01-24T15:05:34.057Z,3.17
2018-01-24T15:08:03.871Z,1.83
2018-01-24T15:10:33.709Z,2.57
2018-01-24T15:13:03.650Z,1.23
2018-01-24T15:15:33.761Z,1.80
2018-01-24T15:18:03.636Z,1.30
2018-01-24T15:20:33.625Z,1.13
2018-01-24T15:23:03.465Z,2.57
2018-01-24T15:25:33.345Z,1.10
2018-01-24T15:28:03.201Z,1.60
2018-01-24T15:30:33.022Z,2.93
2018-01-24T15:33:02.913Z,4.43
2018-01-24T15:35:32.725Z,3.00
2018-01-24T15:38:02.551Z,2.27
2018-01-24T15:40:32.398Z,1.80
2018-01-24T15:43:02.208Z,5.63
2018-01-24T15:45:32.182Z,2.50
2018-01-24T15:48:01.999Z,2.13
2018-01-24T15:50:31.846Z,1.20
2018-01-24T15:53:01.762Z,1.60
2018-01-24T15:55:31.607Z,1.73
2018-01-24T15:58:01.413Z,2.27
2018-01-24T16:00:31.258Z,0.90
2018-01-24T16:03:01.670Z,2.40
2018-01-24T16:05:31.497Z,0.80
2018-01-24T16:08:01.346Z,1.20
2018-01-24T16:10:31.163Z,1.53
2018-01-24T16:13:01.014Z,2.20
2018-01-24T16:15:30.861Z,1.10
2018-01-24T16:18:00.735Z,1.00
2018-01-24T16:20:30.546Z,1.20
2018-01-24T16:23:00.477Z,4.10
2018-01-24T16:25:31.026Z,1.27
2018-01-24T16:28:00.870Z,2.03
2018-01-24T16:30:30.714Z,1.03
2018-01-24T16:33:00.581Z,1.00
2018-01-24T16:35:31.117Z,0.73
2018-01-24T16:38:00.966Z,1.20
2018-01-24T16:40:30.777Z,2.00
2018-01-24T16:43:00.626Z,0.80
2018-01-24T16:45:30.477Z,1.07
2018-01-24T16:48:00.281Z,0.70
2018-01-24T16:50:30.137Z,0.70
2018-01-24T16:52:59.953Z,3.23
2018-01-24T16:55:29.834Z,2.23
2018-01-24T16:57:59.643Z,0.70
2018-01-24T17:00:29.456Z,0.80
2018-01-24T17:02:59.314Z,0.90
2018-01-24T17:05:29.251Z,0.83
2018-01-24T17:07:59.057Z,0.93
2018-01-24T17:10:29.202Z,0.80
2018-01-24T17:12:59.014Z,0.80
2018-01-24T17:15:28.881Z,0.83
2018-01-24T17:17:58.694Z,1.10
2018-01-24T17:20:28.550Z,1.60
2018-01-24T17:22:59.361Z,0.80
2018-01-24T17:25:29.287Z,0.70
2018-01-24T17:27:59.094Z,1.20
2018-01-24T17:30:28.974Z,0.60
2018-01-24T17:32:58.786Z,1.20
2018-01-24T17:35:28.597Z,0.67
2018-01-24T17:37:58.453Z,3.57
2018-01-24T17:40:28.266Z,0.87
2018-01-24T17:42:58.110Z,1.50
2018-01-24T17:45:27.922Z,0.70
2018-01-24T17:47:57.821Z,0.70
2018-01-24T17:50:27.677Z,0.73
2018-01-24T17:52:57.561Z,0.60
2018-01-24T17:55:27.494Z,1.33
2018-01-24T17:57:57.307Z,0.73
2018-01-24T18:00:27.342Z,1.27
2018-01-24T18:02:57.154Z,0.70
2018-01-24T18:05:27.106Z,1.00
2018-01-24T18:07:56.910Z,0.97
2018-01-24T18:10:26.757Z,0.60
2018-01-24T18:12:56.569Z,1.60
2018-01-24T18:15:26.708Z,0.83
2018-01-24T18:17:56.520Z,2.47
2018-01-24T18:20:26.382Z,0.97
2018-01-24T18:22:56.252Z,0.80
2018-01-24T18:25:26.060Z,1.17
2018-01-24T18:27:56.135Z,0.97
2018-01-24T18:30:25.946Z,0.70
2018-01-24T18:32:55.989Z,1.07
2018-01-24T18:35:25.826Z,0.80
2018-01-24T18:37:55.635Z,2.43
2018-01-24T18:40:25.766Z,0.80
2018-01-24T18:42:55.577Z,0.70
2018-01-24T18:45:25.421Z,1.20
2018-01-24T18:47:55.314Z,0.90
2018-01-24T18:50:25.150Z,0.80
2018-01-24T18:52:55.311Z,1.10
2018-01-24T18:55:25.126Z,2.97
2018-01-24T18:57:54.974Z,1.10
2018-01-24T19:00:25.194Z,0.90
2018-01-24T19:02:55.006Z,1.47
2018-01-24T19:05:24.891Z,0.80
2018-01-24T19:07:54.702Z,0.80
2018-01-24T19:10:24.590Z,0.70
2018-01-24T19:12:54.455Z,1.63
2018-01-24T19:15:24.267Z,1.20
2018-01-24T19:17:54.181Z,1.90
2018-01-24T19:20:23.989Z,1.03
2018-01-24T19:22:53.839Z,0.93
2018-01-24T19:25:23.686Z,1.20
2018-01-24T19:27:53.503Z,1.13
2018-01-24T19:30:23.366Z,1.43
2018-01-24T19:32:53.174Z,1.30
2018-01-24T19:35:23.037Z,0.80
2018-01-24T19:37:52.870Z,1.10
2018-01-24T19:40:22.681Z,2.43
2018-01-24T19:42:52.538Z,1.40
2018-01-24T19:45:22.350Z,1.47
2018-01-24T19:47:52.194Z,1.00
2018-01-24T19:50:22.010Z,2.50
2018-01-24T19:52:51.854Z,2.60
2018-01-24T19:55:21.758Z,1.83
2018-01-24T19:57:51.660Z,1.20
2018-01-24T20:00:21.461Z,3.60
2018-01-24T20:02:51.337Z,1.07
2018-01-24T20:05:21.164Z,1.00
2018-01-24T20:07:51.090Z,1.27
2018-01-24T20:10:20.915Z,1.00
2018-01-24T20:12:50.762Z,1.33
2018-01-24T20:15:20.570Z,1.93
2018-01-24T20:17:50.383Z,1.10
2018-01-24T20:20:20.501Z,4.30
2018-01-24T20:22:50.422Z,1.87
2018-01-24T20:25:20.285Z,4.70
2018-01-24T20:27:50.102Z,1.80
2018-01-24T20:30:20.924Z,1.93
2018-01-24T20:32:50.738Z,2.20
2018-01-24T20:35:20.588Z,1.77
2018-01-24T20:37:50.434Z,2.20
2018-01-24T20:40:20.262Z,2.50
2018-01-24T20:42:50.165Z,2.40
2018-01-24T20:45:19.983Z,1.87
2018-01-24T20:47:49.837Z,1.20
2018-01-24T20:50:19.664Z,1.30
2018-01-24T20:52:49.582Z,1.40
2018-01-24T20:55:19.705Z,2.60
2018-01-24T20:57:49.519Z,0.93
2018-01-24T21:00:19.362Z,1.20
2018-01-24T21:02:49.213Z,2.43
2018-01-24T21:05:19.019Z,1.43
2018-01-24T21:07:48.885Z,0.93
2018-01-24T21:10:18.693Z,1.20
2018-01-24T21:12:49.509Z,1.27
2018-01-24T21:15:19.318Z,1.80
2018-01-24T21:17:49.361Z,1.80
2018-01-24T21:20:19.169Z,0.80
2018-01-24T21:22:49.018Z,1.30
2018-01-24T21:25:18.842Z,2.17
2018-01-24T21:27:48.969Z,1.23
2018-01-24T21:30:22.766Z,2.07
2018-01-24T21:35:56.915Z,1.10
2018-01-24T21:38:26.770Z,3.10
2018-01-24T21:40:56.581Z,1.30
2018-01-24T21:43:26.393Z,1.30
2018-01-24T21:45:56.241Z,2.03
2018-01-24T21:48:26.050Z,1.00
2018-01-24T21:50:55.897Z,1.30
2018-01-24T21:53:25.710Z,2.60
2018-01-24T21:55:55.517Z,2.30
2018-01-24T21:58:25.366Z,3.73
2018-01-24T22:00:55.181Z,1.30
2018-01-24T22:03:25.062Z,1.63
2018-01-24T22:05:54.870Z,1.40
2018-01-24T22:08:24.717Z,2.10
2018-01-24T22:10:54.522Z,2.17
2018-01-24T22:13:24.734Z,1.77
2018-01-24T22:15:54.550Z,1.87
2018-01-24T22:18:24.408Z,3.70
2018-01-24T22:23:29.991Z,1.80
2018-01-24T22:26:00.106Z,2.60
2018-01-24T22:28:30.443Z,2.60
2018-01-24T22:31:00.283Z,2.60
2018-01-24T22:33:30.434Z,1.67
2018-01-24T22:36:00.262Z,2.07
2018-01-24T22:38:30.126Z,2.30
2018-01-24T22:40:59.990Z,1.70
2018-01-24T22:43:29.830Z,2.10
2018-01-24T22:45:59.697Z,1.70
2018-01-24T22:48:29.536Z,2.30
2018-01-24T22:50:59.411Z,1.60
2018-01-24T22:53:29.218Z,1.53
2018-01-24T22:55:59.066Z,3.47
2018-01-24T22:58:28.878Z,3.30
2018-01-24T23:00:58.721Z,1.87
2018-01-24T23:03:28.530Z,3.53
2018-01-24T23:05:58.741Z,1.70
2018-01-24T23:08:28.573Z,1.60
2018-01-24T23:10:58.413Z,1.53
2018-01-24T23:13:28.321Z,1.93
2018-01-24T23:15:58.274Z,2.40
2018-01-24T23:18:28.205Z,2.57
2018-01-24T23:20:58.069Z,2.63
2018-01-24T23:23:27.899Z,1.90
2018-01-24T23:25:57.728Z,2.70
2018-01-24T23:28:27.592Z,2.00
2018-01-24T23:30:57.422Z,2.40
2018-01-24T23:33:27.374Z,1.90
2018-01-24T23:35:57.204Z,2.27
2018-01-24T23:38:27.177Z,2.67
2018-01-24T23:40:57.009Z,2.60
2018-01-24T23:43:26.969Z,2.87
2018-01-24T23:45:56.798Z,4.70
2018-01-24T23:48:26.925Z,2.93
2018-01-24T23:50:56.903Z,3.03
2018-01-24T23:53:26.733Z,2.97
2018-01-24T23:55:56.610Z,3.50
2018-01-24T23:58:26.439Z,3.47
